Time;durP1;ratioP1;P1;durP2;ratioP2;P2;SDS_P1;SDS_P2;PMS_P1;PMS_P2;Temp;Humidity;BMP_temperature;BMP_pressure;BME280_temperature;BME280_humidity;BME280_pressure;Samples;Min_cycle;Max_cycle;Signal;HPM_P1;HPM_P2
2023/03/30 00:02:03;;;;;;;10.68;4.57;;;;;;;;;;5015911;28;20053;-76
2023/03/30 00:04:33;;;;;;;7.35;4.43;;;;;;;;;;5015910;28;20029;-76
2023/03/30 00:06:59;;;;;;;8.98;4.13;;;;;;;;;;5016222;28;20098;-76
2023/03/30 00:09:29;;;;;;;10.43;4.57;;;;;;;;;;5033582;28;20052;-77
2023/03/30 00:11:55;;;;;;;6.90;4.30;;;;;;;;;;5033023;28;20025;-76
2023/03/30 00:14:25;;;;;;;10.02;4.35;;;;;;;;;;5033172;28;20029;-78
2023/03/30 00:16:52;;;;;;;8.07;4.60;;;;;;;;;;5037105;28;20041;-78
2023/03/30 00:19:17;;;;;;;10.63;4.95;;;;;;;;;;5035695;28;20083;-78
2023/03/30 00:21:44;;;;;;;8.55;4.30;;;;;;;;;;5019319;28;20033;-79
2023/03/30 00:24:09;;;;;;;13.50;4.70;;;;;;;;;;5035648;28;20061;-78
2023/03/30 00:26:35;;;;;;;10.05;4.60;;;;;;;;;;5019076;28;20076;-78
2023/03/30 00:29:00;;;;;;;8.88;4.15;;;;;;;;;;5019174;28;20021;-78
2023/03/30 00:31:26;;;;;;;9.55;4.28;;;;;;;;;;5036623;28;20083;-78
2023/03/30 00:33:51;;;;;;;8.80;4.50;;;;;;;;;;5018609;28;20104;-79
2023/03/30 00:36:17;;;;;;;7.53;4.38;;;;;;;;;;5015309;28;20034;-79
2023/03/30 00:38:44;;;;;;;9.27;4.43;;;;;;;;;;5016765;28;20030;-78
2023/03/30 00:41:09;;;;;;;9.63;4.63;;;;;;;;;;5015346;28;20436;-78
2023/03/30 00:43:53;;;;;;;12.88;5.00;;;;;;;;;;4999028;28;20087;-78
2023/03/30 00:46:19;;;;;;;12.73;6.15;;;;;;;;;;4999248;28;20030;-78
2023/03/30 00:48:45;;;;;;;12.40;6.22;;;;;;;;;;5016558;28;20030;-78
2023/03/30 00:51:11;;;;;;;11.20;6.03;;;;;;;;;;4982908;28;20025;-79
2023/03/30 00:53:38;;;;;;;16.45;6.43;;;;;;;;;;4998761;28;20034;-76
2023/03/30 00:56:06;;;;;;;15.40;6.38;;;;;;;;;;4998568;28;20112;-78
2023/03/30 00:58:31;;;;;;;12.95;6.63;;;;;;;;;;4998628;28;20463;-78
2023/03/30 01:00:57;;;;;;;10.43;5.32;;;;;;;;;;4999534;28;20033;-78
2023/03/30 01:03:26;;;;;;;12.93;5.07;;;;;;;;;;5002022;28;20030;-77
2023/03/30 01:05:52;;;;;;;11.68;5.28;;;;;;;;;;5018810;28;20369;-76
2023/03/30 01:08:18;;;;;;;13.13;5.20;;;;;;;;;;5034687;28;20112;-77
2023/03/30 01:10:44;;;;;;;15.77;5.13;;;;;;;;;;5035821;28;20018;-77
2023/03/30 01:13:10;;;;;;;10.57;5.85;;;;;;;;;;5034698;28;20128;-77
2023/03/30 01:15:39;;;;;;;10.07;5.18;;;;;;;;;;5018203;28;20026;-77
2023/03/30 01:18:10;;;;;;;17.85;5.93;;;;;;;;;;5002259;28;20041;-77
2023/03/30 01:20:50;;;;;;;15.90;6.53;;;;;;;;;;5034579;28;20017;-77
2023/03/30 01:24:14;;;;;;;14.65;6.57;;;;;;;;;;5035954;28;20025;-77
2023/03/30 01:26:54;;;;;;;12.35;6.20;;;;;;;;;;4973539;28;20073;-78
2023/03/30 01:29:28;;;;;;;19.70;6.85;;;;;;;;;;4959170;28;20031;-77
2023/03/30 01:32:12;;;;;;;11.07;5.20;;;;;;;;;;5015362;28;20434;-77
2023/03/30 01:35:12;;;;;;;14.77;5.05;;;;;;;;;;5029693;28;20029;-78
2023/03/30 01:37:44;;;;;;;9.90;5.30;;;;;;;;;;5034177;28;20380;-77
2023/03/30 01:40:22;;;;;;;9.40;4.93;;;;;;;;;;5017288;28;20040;-77
2023/03/30 01:43:03;;;;;;;10.52;5.25;;;;;;;;;;5034040;28;20132;-77
2023/03/30 01:45:50;;;;;;;9.68;4.85;;;;;;;;;;5034394;28;20040;-78
2023/03/30 01:48:32;;;;;;;11.82;5.43;;;;;;;;;;5033573;28;20030;-78
2023/03/30 01:51:01;;;;;;;11.85;5.43;;;;;;;;;;5019248;28;20037;-79
2023/03/30 01:53:31;;;;;;;12.93;6.88;;;;;;;;;;5017134;28;20055;-78
2023/03/30 01:56:05;;;;;;;16.52;6.65;;;;;;;;;;5017244;28;20352;-79
2023/03/30 01:58:38;;;;;;;13.25;7.60;;;;;;;;;;5033543;28;20145;-78
2023/03/30 02:01:05;;;;;;;15.38;7.68;;;;;;;;;;5001207;28;20034;-78
2023/03/30 02:03:31;;;;;;;13.95;7.82;;;;;;;;;;5017387;28;20033;-78
2023/03/30 02:06:03;;;;;;;20.30;7.80;;;;;;;;;;5017190;28;20434;-78
2023/03/30 02:08:30;;;;;;;18.00;7.85;;;;;;;;;;5017253;28;20108;-78
2023/03/30 02:10:56;;;;;;;15.20;7.75;;;;;;;;;;5001105;28;20039;-77
2023/03/30 02:13:21;;;;;;;15.32;7.93;;;;;;;;;;5017115;28;20035;-78
2023/03/30 02:15:53;;;;;;;15.10;7.50;;;;;;;;;;5033503;28;20377;-78
2023/03/30 02:18:19;;;;;;;13.45;7.28;;;;;;;;;;5033524;28;20033;-77
2023/03/30 02:20:44;;;;;;;14.93;7.28;;;;;;;;;;5000860;28;20026;-77
2023/03/30 02:23:10;;;;;;;15.98;7.35;;;;;;;;;;5033223;28;20037;-78
2023/03/30 02:25:37;;;;;;;23.27;9.15;;;;;;;;;;5033765;28;20032;-78
2023/03/30 02:28:03;;;;;;;33.50;10.98;;;;;;;;;;5017070;28;20467;-78
2023/03/30 02:30:37;;;;;;;24.02;9.52;;;;;;;;;;5000798;28;20029;-77
2023/03/30 02:33:02;;;;;;;22.88;8.63;;;;;;;;;;5016928;28;20033;-78
2023/03/30 02:35:46;;;;;;;25.55;8.77;;;;;;;;;;5016735;28;20030;-77
2023/03/30 02:38:32;;;;;;;20.52;8.13;;;;;;;;;;5010072;28;20474;-77
2023/03/30 02:41:05;;;;;;;20.33;7.50;;;;;;;;;;5014576;28;20364;-78
2023/03/30 02:43:40;;;;;;;16.95;7.88;;;;;;;;;;5014366;28;20034;-79
2023/03/30 02:46:06;;;;;;;21.20;8.02;;;;;;;;;;5014138;28;20049;-78
2023/03/30 02:48:50;;;;;;;16.10;7.70;;;;;;;;;;5013292;28;20077;-78
2023/03/30 02:51:24;;;;;;;15.63;7.65;;;;;;;;;;5013940;28;20033;-78
2023/03/30 02:53:57;;;;;;;16.35;7.30;;;;;;;;;;5012975;28;20385;-78
2023/03/30 02:56:27;;;;;;;14.20;7.35;;;;;;;;;;4996508;28;20064;-78
2023/03/30 02:59:47;;;;;;;18.63;7.05;;;;;;;;;;4981211;28;20034;-78
2023/03/30 03:02:20;;;;;;;13.75;6.68;;;;;;;;;;4992100;28;20030;-78
2023/03/30 03:04:46;;;;;;;13.52;6.95;;;;;;;;;;4996030;28;20096;-78
2023/03/30 03:07:11;;;;;;;15.10;7.32;;;;;;;;;;4996201;28;20030;-77
2023/03/30 03:09:37;;;;;;;21.77;8.55;;;;;;;;;;4996644;28;20032;-77
2023/03/30 03:12:03;;;;;;;17.70;8.20;;;;;;;;;;5013057;28;20201;-77
2023/03/30 03:14:28;;;;;;;14.70;7.43;;;;;;;;;;5014031;28;20144;-78
2023/03/30 03:16:54;;;;;;;19.65;7.30;;;;;;;;;;5014086;28;20036;-78
2023/03/30 03:19:19;;;;;;;17.05;6.90;;;;;;;;;;5012994;28;20030;-78
2023/03/30 03:21:44;;;;;;;16.40;8.32;;;;;;;;;;5012415;28;20037;-78
2023/03/30 03:24:12;;;;;;;20.95;9.75;;;;;;;;;;5012883;28;20026;-78
2023/03/30 03:26:38;;;;;;;20.10;9.65;;;;;;;;;;5012738;28;20026;-78
2023/03/30 03:29:04;;;;;;;16.55;8.27;;;;;;;;;;4996737;28;20018;-77
2023/03/30 03:31:29;;;;;;;16.00;8.23;;;;;;;;;;5013486;28;20030;-77
2023/03/30 03:33:55;;;;;;;17.25;8.07;;;;;;;;;;5013823;28;20092;-79
2023/03/30 03:36:21;;;;;;;19.17;8.48;;;;;;;;;;5012402;28;20061;-79
2023/03/30 03:38:47;;;;;;;19.17;7.97;;;;;;;;;;4990461;28;20112;-78
2023/03/30 03:41:13;;;;;;;19.85;8.52;;;;;;;;;;4992849;28;20575;-78
2023/03/30 03:43:38;;;;;;;31.15;11.27;;;;;;;;;;4976775;28;20045;-78
2023/03/30 03:46:03;;;;;;;38.95;13.13;;;;;;;;;;4992627;28;20448;-78
2023/03/30 03:48:29;;;;;;;33.15;11.65;;;;;;;;;;4992966;28;20026;-79
2023/03/30 03:50:56;;;;;;;17.98;8.18;;;;;;;;;;4996348;28;20114;-79
2023/03/30 03:53:22;;;;;;;18.70;9.00;;;;;;;;;;4996561;28;20042;-78
2023/03/30 03:55:47;;;;;;;21.45;9.27;;;;;;;;;;4996789;28;20135;-79
2023/03/30 03:58:13;;;;;;;18.75;9.23;;;;;;;;;;4996288;28;20080;-79
2023/03/30 04:00:38;;;;;;;18.10;8.40;;;;;;;;;;4980309;28;20085;-79
2023/03/30 04:03:04;;;;;;;19.85;8.23;;;;;;;;;;4980428;28;20547;-78
2023/03/30 04:05:30;;;;;;;17.52;9.27;;;;;;;;;;4996372;28;20026;-79
2023/03/30 04:07:55;;;;;;;20.52;8.85;;;;;;;;;;4996418;28;20460;-78
2023/03/30 04:10:21;;;;;;;15.90;8.40;;;;;;;;;;4996628;28;20038;-78
2023/03/30 04:12:46;;;;;;;22.38;10.40;;;;;;;;;;4980320;28;20069;-78
2023/03/30 04:15:12;;;;;;;19.80;10.40;;;;;;;;;;5028210;28;20029;-78
2023/03/30 04:17:37;;;;;;;23.17;10.07;;;;;;;;;;5019667;28;20013;-78
2023/03/30 04:20:10;;;;;;;25.40;10.27;;;;;;;;;;5035008;28;20052;-78
2023/03/30 04:22:35;;;;;;;23.38;11.20;;;;;;;;;;5036651;28;20033;-78
2023/03/30 04:25:04;;;;;;;26.45;11.25;;;;;;;;;;5034963;28;20029;-78
2023/03/30 04:27:29;;;;;;;24.05;10.93;;;;;;;;;;5035377;28;20526;-78
2023/03/30 04:29:56;;;;;;;27.35;11.43;;;;;;;;;;5035363;28;20108;-79
2023/03/30 04:32:22;;;;;;;21.73;10.60;;;;;;;;;;5035013;28;20368;-79
2023/03/30 04:34:48;;;;;;;25.33;10.80;;;;;;;;;;5019102;28;20037;-78
2023/03/30 04:37:17;;;;;;;25.38;10.98;;;;;;;;;;5001985;28;20037;-78
2023/03/30 04:39:44;;;;;;;26.60;12.73;;;;;;;;;;5019151;28;20029;-78
2023/03/30 04:42:13;;;;;;;32.83;14.05;;;;;;;;;;5016950;28;20159;-79
2023/03/30 04:44:41;;;;;;;30.52;12.77;;;;;;;;;;5015014;28;20439;-79
2023/03/30 04:47:07;;;;;;;35.53;14.82;;;;;;;;;;5016747;28;20030;-78
2023/03/30 04:49:33;;;;;;;42.03;16.40;;;;;;;;;;5008755;28;20125;-76
2023/03/30 04:51:59;;;;;;;47.90;20.00;;;;;;;;;;4979130;28;20030;-78
2023/03/30 04:54:24;;;;;;;35.53;16.00;;;;;;;;;;5013511;28;20450;-78
2023/03/30 04:56:50;;;;;;;42.53;18.02;;;;;;;;;;5018838;28;20065;-76
2023/03/30 04:59:25;;;;;;;31.00;13.63;;;;;;;;;;5017770;28;20037;-76
2023/03/30 05:01:53;;;;;;;32.85;14.70;;;;;;;;;;4997277;28;20072;-73
2023/03/30 05:04:22;;;;;;;33.80;14.05;;;;;;;;;;4997562;28;20576;-77
2023/03/30 05:06:48;;;;;;;40.30;15.43;;;;;;;;;;4997279;28;20065;-74
2023/03/30 05:09:22;;;;;;;33.42;14.77;;;;;;;;;;5015211;28;20379;-76
2023/03/30 05:11:47;;;;;;;42.72;14.32;;;;;;;;;;5011109;28;20029;-76
2023/03/30 05:14:13;;;;;;;35.83;15.35;;;;;;;;;;5014547;28;20040;-77
2023/03/30 05:16:38;;;;;;;35.25;14.98;;;;;;;;;;5017149;28;20466;-76
2023/03/30 05:19:05;;;;;;;35.10;16.05;;;;;;;;;;5013542;28;20033;-79
2023/03/30 05:21:30;;;;;;;53.90;20.55;;;;;;;;;;5015031;28;20266;-77
2023/03/30 05:23:57;;;;;;;41.05;18.73;;;;;;;;;;5009957;28;20096;-75
2023/03/30 05:26:22;;;;;;;35.83;16.67;;;;;;;;;;5009022;28;20025;-75
2023/03/30 05:28:48;;;;;;;31.10;15.20;;;;;;;;;;5010521;28;20466;-80
2023/03/30 05:31:14;;;;;;;34.72;15.02;;;;;;;;;;5012316;28;20026;-77
2023/03/30 05:33:40;;;;;;;29.23;14.50;;;;;;;;;;4994128;28;20048;-79
2023/03/30 05:36:05;;;;;;;35.45;14.65;;;;;;;;;;5011846;28;20049;-78
2023/03/30 05:39:00;;;;;;;30.80;14.10;;;;;;;;;;5013639;28;20335;-78
2023/03/30 05:41:27;;;;;;;25.48;13.48;;;;;;;;;;5004773;28;20045;-78
2023/03/30 05:43:53;;;;;;;30.52;14.45;;;;;;;;;;5015699;28;20041;-78
2023/03/30 05:46:18;;;;;;;40.10;16.05;;;;;;;;;;5009165;28;20033;-78
2023/03/30 05:48:44;;;;;;;39.65;17.83;;;;;;;;;;5006704;28;20033;-77
2023/03/30 05:51:09;;;;;;;45.50;18.23;;;;;;;;;;5010723;28;20052;-77
2023/03/30 05:53:35;;;;;;;38.88;16.55;;;;;;;;;;5007820;28;20112;-75
2023/03/30 05:56:01;;;;;;;50.75;16.88;;;;;;;;;;5009461;28;20034;-78
2023/03/30 05:58:27;;;;;;;44.90;16.20;;;;;;;;;;5012048;28;20642;-78
2023/03/30 06:00:56;;;;;;;46.95;17.73;;;;;;;;;;5010492;28;20025;-78
2023/03/30 06:03:22;;;;;;;49.75;16.48;;;;;;;;;;5012015;28;20041;-77
2023/03/30 06:05:47;;;;;;;35.95;13.38;;;;;;;;;;5011960;28;20095;-77
2023/03/30 06:08:16;;;;;;;29.27;11.80;;;;;;;;;;5010906;28;20033;-77
2023/03/30 06:10:41;;;;;;;25.20;12.27;;;;;;;;;;5012315;28;20034;-76
2023/03/30 06:13:07;;;;;;;28.55;12.82;;;;;;;;;;5011368;28;20518;-77
2023/03/30 06:15:33;;;;;;;30.65;12.68;;;;;;;;;;5011352;28;20030;-76
2023/03/30 06:17:59;;;;;;;34.10;14.43;;;;;;;;;;5005687;28;20025;-77
2023/03/30 06:20:24;;;;;;;30.08;14.68;;;;;;;;;;5008985;28;20034;-76
2023/03/30 06:22:50;;;;;;;30.65;12.23;;;;;;;;;;5011410;28;20037;-76
2023/03/30 06:25:18;;;;;;;26.58;14.10;;;;;;;;;;5013375;28;20144;-77
2023/03/30 06:27:44;;;;;;;33.20;16.23;;;;;;;;;;5009828;28;20033;-77
2023/03/30 06:30:10;;;;;;;34.95;17.52;;;;;;;;;;4997294;28;20028;-76
2023/03/30 06:32:37;;;;;;;40.95;15.52;;;;;;;;;;4995711;28;20026;-76
2023/03/30 06:35:03;;;;;;;58.03;17.60;;;;;;;;;;4995110;28;20022;-77
2023/03/30 06:37:30;;;;;;;59.20;18.55;;;;;;;;;;5003349;28;20034;-77
2023/03/30 06:39:56;;;;;;;42.65;19.00;;;;;;;;;;5011431;28;20459;-77
2023/03/30 06:42:22;;;;;;;40.30;15.02;;;;;;;;;;5011702;28;20033;-79
2023/03/30 06:44:47;;;;;;;32.60;13.63;;;;;;;;;;5010693;28;20084;-75
2023/03/30 06:47:13;;;;;;;33.78;15.75;;;;;;;;;;5009925;28;20087;-79
2023/03/30 06:49:38;;;;;;;29.05;13.27;;;;;;;;;;5029860;28;20029;-78
2023/03/30 06:52:04;;;;;;;33.55;12.52;;;;;;;;;;5030307;28;20029;-77
2023/03/30 06:54:29;;;;;;;22.50;11.85;;;;;;;;;;5031678;28;20120;-77
2023/03/30 06:56:55;;;;;;;28.17;12.70;;;;;;;;;;5028941;28;20360;-76
2023/03/30 06:59:20;;;;;;;22.40;11.77;;;;;;;;;;5014795;28;20022;-76
2023/03/30 07:01:46;;;;;;;24.35;12.07;;;;;;;;;;5030183;28;20493;-78
2023/03/30 07:04:13;;;;;;;20.20;10.98;;;;;;;;;;5029800;28;20026;-77
2023/03/30 07:06:45;;;;;;;19.17;10.63;;;;;;;;;;5029615;28;20037;-77
2023/03/30 07:09:11;;;;;;;23.08;10.40;;;;;;;;;;5021211;28;20159;-77
2023/03/30 07:11:37;;;;;;;27.58;10.20;;;;;;;;;;5030119;28;20021;-78
2023/03/30 07:14:04;;;;;;;14.18;8.43;;;;;;;;;;5030377;28;20048;-77
2023/03/30 07:16:29;;;;;;;15.07;8.23;;;;;;;;;;5030656;28;20026;-78
2023/03/30 07:18:55;;;;;;;13.40;8.35;;;;;;;;;;5031063;28;20030;-78
2023/03/30 07:21:20;;;;;;;16.30;8.18;;;;;;;;;;5030899;28;20034;-77
2023/03/30 07:23:46;;;;;;;12.60;7.88;;;;;;;;;;5031264;28;20045;-77
2023/03/30 07:26:11;;;;;;;20.80;7.90;;;;;;;;;;5033948;28;20033;-77
2023/03/30 07:28:40;;;;;;;17.98;7.75;;;;;;;;;;5035263;28;20061;-78
2023/03/30 07:31:26;;;;;;;20.92;8.13;;;;;;;;;;5019347;28;20029;-79
2023/03/30 07:33:52;;;;;;;14.13;6.15;;;;;;;;;;5023628;28;20034;-77
2023/03/30 07:36:21;;;;;;;8.98;5.95;;;;;;;;;;5010513;28;20040;-78
2023/03/30 07:38:46;;;;;;;11.93;6.40;;;;;;;;;;4995696;28;20027;-76
2023/03/30 07:41:13;;;;;;;14.60;6.50;;;;;;;;;;4995916;28;20117;-78
2023/03/30 07:43:41;;;;;;;15.75;6.35;;;;;;;;;;4995568;28;20027;-78
2023/03/30 07:46:08;;;;;;;13.38;7.30;;;;;;;;;;4997293;28;20065;-78
2023/03/30 07:48:34;;;;;;;17.00;7.13;;;;;;;;;;5016611;28;20038;-77
2023/03/30 07:51:11;;;;;;;16.63;8.20;;;;;;;;;;5018865;28;20414;-78
2023/03/30 07:53:36;;;;;;;21.13;6.90;;;;;;;;;;5015692;28;20057;-78
2023/03/30 07:56:02;;;;;;;21.48;7.57;;;;;;;;;;5006522;28;20440;-77
2023/03/30 07:58:32;;;;;;;26.25;6.65;;;;;;;;;;5009849;28;20137;-78
2023/03/30 08:00:57;;;;;;;19.55;7.20;;;;;;;;;;4995873;28;20286;-77
2023/03/30 08:03:23;;;;;;;16.67;6.50;;;;;;;;;;5006440;28;20030;-78
2023/03/30 08:05:53;;;;;;;13.98;6.05;;;;;;;;;;4996813;28;20056;-77
2023/03/30 08:08:19;;;;;;;23.60;8.85;;;;;;;;;;5015337;28;20029;-77
2023/03/30 08:10:45;;;;;;;14.57;5.97;;;;;;;;;;5016183;28;20084;-77
2023/03/30 08:13:11;;;;;;;15.27;6.53;;;;;;;;;;5013782;28;20053;-78
2023/03/30 08:15:37;;;;;;;14.57;5.53;;;;;;;;;;5014584;28;20022;-81
2023/03/30 08:18:06;;;;;;;9.93;6.00;;;;;;;;;;5015243;28;20034;-79
2023/03/30 08:20:35;;;;;;;15.93;6.22;;;;;;;;;;5016181;28;20175;-80
2023/03/30 08:23:01;;;;;;;15.98;6.18;;;;;;;;;;4993780;28;20073;-80
2023/03/30 08:25:26;;;;;;;13.35;6.50;;;;;;;;;;4995555;28;20423;-80
2023/03/30 08:27:52;;;;;;;8.75;6.40;;;;;;;;;;4996401;28;20058;-79
2023/03/30 08:30:17;;;;;;;11.57;6.50;;;;;;;;;;4995983;28;20463;-78
2023/03/30 08:32:43;;;;;;;9.38;6.22;;;;;;;;;;4997593;28;20034;-79
2023/03/30 08:35:08;;;;;;;13.15;6.63;;;;;;;;;;4995324;28;20353;-80
2023/03/30 08:37:34;;;;;;;10.32;6.65;;;;;;;;;;4996494;28;20030;-80
2023/03/30 08:40:00;;;;;;;13.23;6.75;;;;;;;;;;4978582;28;20042;-79
2023/03/30 08:42:59;;;;;;;11.93;6.60;;;;;;;;;;4996076;28;20088;-80
2023/03/30 08:45:24;;;;;;;9.93;5.82;;;;;;;;;;5012770;28;20037;-78
2023/03/30 08:47:51;;;;;;;13.32;6.15;;;;;;;;;;5009463;28;20041;-80
2023/03/30 08:50:30;;;;;;;13.48;6.40;;;;;;;;;;5009304;28;20040;-78
2023/03/30 08:52:56;;;;;;;17.88;6.00;;;;;;;;;;5007954;28;20030;-77
2023/03/30 08:55:39;;;;;;;17.02;7.18;;;;;;;;;;4994895;28;20084;-77
2023/03/30 08:58:07;;;;;;;14.38;7.60;;;;;;;;;;5008908;28;20030;-77
2023/03/30 09:01:29;;;;;;;14.23;8.00;;;;;;;;;;5005320;28;20030;-78
2023/03/30 09:04:10;;;;;;;13.80;6.85;;;;;;;;;;4962417;28;20049;-79
2023/03/30 09:06:49;;;;;;;17.02;7.68;;;;;;;;;;4960404;28;20448;-80
2023/03/30 09:09:20;;;;;;;15.13;7.05;;;;;;;;;;4996686;28;20072;-79
2023/03/30 09:11:48;;;;;;;10.60;6.18;;;;;;;;;;4993992;28;20030;-80
2023/03/30 09:14:44;;;;;;;11.13;5.85;;;;;;;;;;5005272;28;20045;-78
2023/03/30 09:17:20;;;;;;;11.55;5.82;;;;;;;;;;4983235;28;20066;-80
2023/03/30 09:19:56;;;;;;;11.98;5.30;;;;;;;;;;5005250;28;20057;-79
2023/03/30 09:22:26;;;;;;;10.60;6.25;;;;;;;;;;4992969;28;20642;-79
2023/03/30 09:24:52;;;;;;;10.35;5.18;;;;;;;;;;4982028;28;20030;-79
2023/03/30 09:27:41;;;;;;;12.13;5.55;;;;;;;;;;5005746;28;20406;-79
2023/03/30 09:30:31;;;;;;;11.70;5.28;;;;;;;;;;5014143;28;20065;-77
2023/03/30 09:32:58;;;;;;;14.77;5.57;;;;;;;;;;5006080;28;20050;-79
2023/03/30 09:35:28;;;;;;;11.60;4.95;;;;;;;;;;5008584;28;20029;-77
2023/03/30 09:37:53;;;;;;;12.45;6.13;;;;;;;;;;4997937;28;20461;-78
2023/03/30 09:40:27;;;;;;;11.50;5.50;;;;;;;;;;5001551;28;20039;-77
2023/03/30 09:43:22;;;;;;;14.18;5.97;;;;;;;;;;5006528;28;20036;-77
2023/03/30 09:45:48;;;;;;;11.68;5.00;;;;;;;;;;4985515;28;20129;-77
2023/03/30 09:48:14;;;;;;;11.23;5.60;;;;;;;;;;4972088;28;20062;-77
2023/03/30 09:50:44;;;;;;;9.93;4.78;;;;;;;;;;4977974;28;20038;-80
2023/03/30 09:53:28;;;;;;;17.77;5.63;;;;;;;;;;5000033;28;20038;-78
2023/03/30 09:56:04;;;;;;;16.50;5.28;;;;;;;;;;5001712;28;20038;-79
2023/03/30 09:58:34;;;;;;;13.00;5.60;;;;;;;;;;5010011;28;20065;-79
2023/03/30 10:01:11;;;;;;;11.05;5.90;;;;;;;;;;5001417;28;20176;-77
2023/03/30 10:03:37;;;;;;;9.95;5.63;;;;;;;;;;5007598;28;20026;-78
2023/03/30 10:06:16;;;;;;;9.32;5.55;;;;;;;;;;5002749;28;20408;-78
2023/03/30 10:08:49;;;;;;;11.60;6.07;;;;;;;;;;5008903;28;20033;-78
2023/03/30 10:11:19;;;;;;;16.17;6.00;;;;;;;;;;5006788;28;20030;-77
2023/03/30 10:13:53;;;;;;;12.32;5.50;;;;;;;;;;5007485;28;20429;-79
2023/03/30 10:16:28;;;;;;;8.90;5.20;;;;;;;;;;4998625;28;20043;-78
2023/03/30 10:18:58;;;;;;;16.23;5.05;;;;;;;;;;5003913;28;20435;-79
2023/03/30 10:21:27;;;;;;;14.18;5.78;;;;;;;;;;5001383;28;20074;-77
2023/03/30 10:24:14;;;;;;;15.80;5.75;;;;;;;;;;4983359;28;20077;-78
2023/03/30 10:26:44;;;;;;;12.13;5.53;;;;;;;;;;5001948;28;20136;-79
2023/03/30 10:29:15;;;;;;;9.65;4.63;;;;;;;;;;5002589;28;20026;-77
2023/03/30 10:31:44;;;;;;;16.45;5.07;;;;;;;;;;5003610;28;20575;-78
2023/03/30 10:34:35;;;;;;;8.35;5.05;;;;;;;;;;4993145;28;20121;-79
2023/03/30 10:37:02;;;;;;;10.90;5.18;;;;;;;;;;4999961;28;20049;-79
2023/03/30 10:39:33;;;;;;;11.98;5.50;;;;;;;;;;4991000;28;20093;-79
2023/03/30 10:42:00;;;;;;;9.27;4.75;;;;;;;;;;5003631;28;20033;-79
2023/03/30 10:44:46;;;;;;;9.27;4.72;;;;;;;;;;4994837;28;20045;-76
2023/03/30 10:47:47;;;;;;;12.00;4.60;;;;;;;;;;4997224;28;20480;-76
2023/03/30 10:50:34;;;;;;;12.20;4.53;;;;;;;;;;4987780;28;20026;-78
2023/03/30 10:53:18;;;;;;;11.80;4.80;;;;;;;;;;4988856;28;20038;-77
2023/03/30 10:56:06;;;;;;;12.18;4.40;;;;;;;;;;5008132;28;20034;-77
2023/03/30 10:58:53;;;;;;;13.85;4.57;;;;;;;;;;4998375;28;20065;-78
2023/03/30 11:01:36;;;;;;;14.75;4.72;;;;;;;;;;4989101;28;20494;-80
2023/03/30 11:04:08;;;;;;;8.85;4.88;;;;;;;;;;4990894;28;20037;-78
2023/03/30 11:06:38;;;;;;;11.93;5.15;;;;;;;;;;5007464;28;20037;-79
2023/03/30 11:09:04;;;;;;;9.07;5.00;;;;;;;;;;4987676;28;20369;-78
2023/03/30 11:11:36;;;;;;;15.02;4.78;;;;;;;;;;4989624;28;20038;-78
2023/03/30 11:14:04;;;;;;;12.38;4.50;;;;;;;;;;4995403;28;20076;-77
2023/03/30 11:16:51;;;;;;;14.15;5.05;;;;;;;;;;4977114;28;20053;-77
2023/03/30 11:19:31;;;;;;;10.40;4.47;;;;;;;;;;5000124;28;20128;-78
2023/03/30 11:22:15;;;;;;;14.38;4.60;;;;;;;;;;4999522;28;20053;-79
2023/03/30 11:24:41;;;;;;;7.55;4.43;;;;;;;;;;5008921;28;20037;-78
2023/03/30 11:27:16;;;;;;;9.00;5.32;;;;;;;;;;5004569;28;20045;-78
2023/03/30 11:29:54;;;;;;;9.80;4.75;;;;;;;;;;4994953;28;20045;-77
2023/03/30 11:32:29;;;;;;;8.15;4.32;;;;;;;;;;4995950;28;20374;-78
2023/03/30 11:35:16;;;;;;;8.48;4.57;;;;;;;;;;5008876;28;20099;-77
2023/03/30 11:37:49;;;;;;;9.70;4.20;;;;;;;;;;5008935;28;20030;-77
2023/03/30 11:40:36;;;;;;;11.35;4.15;;;;;;;;;;5008838;28;20029;-78
2023/03/30 11:43:02;;;;;;;7.95;3.95;;;;;;;;;;5007016;28;20041;-77
2023/03/30 11:46:02;;;;;;;11.45;4.20;;;;;;;;;;5005606;28;20030;-79
2023/03/30 11:48:37;;;;;;;;;;;;;;;;;;5006437;28;20042;-79
2023/03/30 11:51:14;;;;;;;11.45;3.92;;;;;;;;;;5007680;28;19919;-78
2023/03/30 11:53:50;;;;;;;14.38;4.72;;;;;;;;;;5006911;28;20041;-79
2023/03/30 11:56:38;;;;;;;14.68;4.05;;;;;;;;;;4990416;28;20037;-77
2023/03/30 11:59:06;;;;;;;7.00;3.55;;;;;;;;;;5007391;28;20034;-78
2023/03/30 12:01:38;;;;;;;7.60;3.50;;;;;;;;;;4992057;28;20052;-77
2023/03/30 12:04:09;;;;;;;7.78;3.70;;;;;;;;;;5008810;28;20057;-78
2023/03/30 12:06:39;;;;;;;7.03;3.63;;;;;;;;;;5009642;28;20305;-77
2023/03/30 12:09:18;;;;;;;7.40;3.83;;;;;;;;;;5010151;28;20030;-77
2023/03/30 12:12:10;;;;;;;6.20;3.42;;;;;;;;;;5012374;28;20037;-79
2023/03/30 12:14:45;;;;;;;11.40;3.75;;;;;;;;;;5015658;28;20038;-79
2023/03/30 12:17:25;;;;;;;7.68;3.72;;;;;;;;;;5016877;28;20038;-78
2023/03/30 12:20:09;;;;;;;8.45;3.60;;;;;;;;;;5016803;28;20022;-79
2023/03/30 12:22:58;;;;;;;7.28;3.08;;;;;;;;;;5015707;28;20360;-79
2023/03/30 12:25:56;;;;;;;11.33;4.03;;;;;;;;;;5015637;28;20025;-78
2023/03/30 12:28:23;;;;;;;9.57;4.13;;;;;;;;;;5015804;28;20119;-77
2023/03/30 12:30:54;;;;;;;5.88;3.35;;;;;;;;;;5015396;28;20088;-77
2023/03/30 12:33:28;;;;;;;6.05;3.17;;;;;;;;;;5015479;28;20443;-80
2023/03/30 12:35:56;;;;;;;10.18;3.42;;;;;;;;;;5015204;28;20439;-79
2023/03/30 12:38:37;;;;;;;10.05;3.40;;;;;;;;;;5015248;28;20057;-79
2023/03/30 12:41:12;;;;;;;8.80;3.60;;;;;;;;;;4998554;28;20080;-79
2023/03/30 12:44:13;;;;;;;6.20;3.28;;;;;;;;;;5015528;28;20034;-78
2023/03/30 12:47:46;;;;;;;10.80;3.03;;;;;;;;;;5014804;28;20184;-78
2023/03/30 12:50:27;;;;;;;9.80;3.20;;;;;;;;;;4965775;28;20039;-78
2023/03/30 12:53:11;;;;;;;9.48;3.25;;;;;;;;;;5016117;28;20026;-79
2023/03/30 12:55:55;;;;;;;11.93;3.40;;;;;;;;;;5016450;28;20053;-79
2023/03/30 12:59:02;;;;;;;8.68;3.22;;;;;;;;;;5014927;28;20060;-79
2023/03/30 13:01:36;;;;;;;9.98;3.30;;;;;;;;;;5001909;28;20033;-79
2023/03/30 13:04:09;;;;;;;5.60;2.85;;;;;;;;;;5035851;28;20021;-79
2023/03/30 13:06:58;;;;;;;6.05;3.03;;;;;;;;;;5002058;28;20040;-79
2023/03/30 13:09:24;;;;;;;7.93;2.85;;;;;;;;;;5024229;28;20085;-80
2023/03/30 13:11:55;;;;;;;5.47;3.10;;;;;;;;;;5034288;28;20220;-80
2023/03/30 13:14:43;;;;;;;4.50;2.60;;;;;;;;;;5035172;28;20039;-80
2023/03/30 13:17:19;;;;;;;8.00;3.00;;;;;;;;;;5019159;28;20029;-79
2023/03/30 13:19:49;;;;;;;8.18;2.53;;;;;;;;;;5017957;28;20041;-80
2023/03/30 13:22:14;;;;;;;;;;;;;;;;;;5033958;28;20025;-79
2023/03/30 13:25:11;;;;;;;12.18;3.00;;;;;;;;;;5034441;28;19941;-78
2023/03/30 13:27:36;;;;;;;5.75;2.38;;;;;;;;;;5034260;28;20121;-79
2023/03/30 13:30:08;;;;;;;5.10;2.80;;;;;;;;;;5017201;28;20108;-79
2023/03/30 13:33:10;;;;;;;6.03;2.55;;;;;;;;;;5034182;28;20025;-79
2023/03/30 13:36:12;;;;;;;5.05;2.35;;;;;;;;;;5018322;28;20034;-79
2023/03/30 13:39:02;;;;;;;5.90;2.20;;;;;;;;;;5032564;28;20467;-78
2023/03/30 13:41:54;;;;;;;5.97;2.83;;;;;;;;;;5034060;28;20028;-78
2023/03/30 13:44:31;;;;;;;6.38;2.75;;;;;;;;;;5011383;28;20132;-77
2023/03/30 13:47:19;;;;;;;7.35;2.92;;;;;;;;;;5034023;28;20160;-79
2023/03/30 13:50:02;;;;;;;6.22;2.50;;;;;;;;;;5035138;28;20036;-78
2023/03/30 13:52:33;;;;;;;5.57;2.40;;;;;;;;;;5017553;28;20021;-78
2023/03/30 13:54:59;;;;;;;11.15;2.60;;;;;;;;;;5017908;28;20131;-79
2023/03/30 13:57:35;;;;;;;6.15;2.80;;;;;;;;;;5017271;28;20140;-79
2023/03/30 14:00:15;;;;;;;6.60;2.30;;;;;;;;;;5017254;28;20030;-79
2023/03/30 14:02:41;;;;;;;7.03;2.70;;;;;;;;;;5017583;28;20095;-78
2023/03/30 14:05:33;;;;;;;3.63;2.30;;;;;;;;;;5015252;28;20034;-78
2023/03/30 14:07:58;;;;;;;7.75;2.30;;;;;;;;;;5021450;28;20521;-79
2023/03/30 14:10:24;;;;;;;3.78;2.50;;;;;;;;;;5033407;28;20065;-78
2023/03/30 14:12:52;;;;;;;5.18;2.20;;;;;;;;;;5033098;28;20029;-78
2023/03/30 14:15:23;;;;;;;3.83;2.40;;;;;;;;;;5033411;28;20037;-78
2023/03/30 14:17:50;;;;;;;5.00;2.40;;;;;;;;;;5016752;28;20403;-78
2023/03/30 14:20:37;;;;;;;3.88;2.40;;;;;;;;;;5033230;28;20025;-77
2023/03/30 14:23:03;;;;;;;4.07;2.47;;;;;;;;;;5034860;28;20101;-78
2023/03/30 14:25:32;;;;;;;4.78;2.53;;;;;;;;;;5033426;28;20497;-78
2023/03/30 14:28:02;;;;;;;3.83;2.45;;;;;;;;;;5032941;28;20052;-78
2023/03/30 14:30:28;;;;;;;3.53;2.38;;;;;;;;;;5016753;28;20029;-78
2023/03/30 14:33:10;;;;;;;6.03;2.60;;;;;;;;;;5016402;28;20033;-78
2023/03/30 14:35:48;;;;;;;7.00;2.67;;;;;;;;;;5032679;28;20064;-79
2023/03/30 14:38:37;;;;;;;4.97;2.47;;;;;;;;;;5034472;28;20453;-78
2023/03/30 14:41:15;;;;;;;5.43;2.53;;;;;;;;;;5030626;28;20382;-78
2023/03/30 14:43:41;;;;;;;5.35;2.38;;;;;;;;;;5033009;28;20362;-79
2023/03/30 14:46:10;;;;;;;6.80;2.95;;;;;;;;;;5016649;28;20032;-78
2023/03/30 14:48:37;;;;;;;6.55;3.10;;;;;;;;;;5016847;28;20037;-78
2023/03/30 14:51:06;;;;;;;6.70;3.10;;;;;;;;;;5016554;28;20025;-78
2023/03/30 14:53:32;;;;;;;7.25;2.80;;;;;;;;;;5034038;28;20037;-78
2023/03/30 14:55:58;;;;;;;11.00;2.90;;;;;;;;;;5016205;28;20026;-78
2023/03/30 14:58:25;;;;;;;8.00;2.78;;;;;;;;;;5032591;28;20037;-79
2023/03/30 15:00:57;;;;;;;10.55;2.63;;;;;;;;;;5016585;28;20025;-77